Time;durP1;ratioP1;P1;durP2;ratioP2;P2;SDS_P1;SDS_P2;PMS_P1;PMS_P2;Temp;Humidity;BMP_temperature;BMP_pressure;BME280_temperature;BME280_humidity;BME280_pressure;Samples;Min_cycle;Max_cycle;Signal;HPM_P1;HPM_P2
2022/03/30 00:01:45;;;;;;;1.60;1.10;;;17.40;60.10;;;;;;5244524;28;20200;-71
2022/03/30 00:04:38;;;;;;;2.60;1.13;;;17.40;60.00;;;;;;5232640;28;20221;-71
2022/03/30 00:07:32;;;;;;;3.37;1.30;;;17.40;60.00;;;;;;5223520;28;20247;-71
2022/03/30 00:10:24;;;;;;;1.00;0.70;;;17.40;59.90;;;;;;5223564;28;20204;-71
2022/03/30 00:13:17;;;;;;;1.20;0.90;;;17.40;59.90;;;;;;5222786;28;20771;-70
2022/03/30 00:16:12;;;;;;;0.90;0.80;;;17.40;59.90;;;;;;5223569;28;20278;-71
2022/03/30 00:19:04;;;;;;;1.60;0.87;;;17.40;59.80;;;;;;5223890;28;20196;-70
2022/03/30 00:21:56;;;;;;;1.13;0.70;;;17.50;60.00;;;;;;5223189;28;20840;-70
2022/03/30 00:24:48;;;;;;;3.63;1.20;;;17.40;59.90;;;;;;5223280;28;20210;-71
2022/03/30 00:27:43;;;;;;;1.30;0.87;;;17.40;60.00;;;;;;5222500;28;20197;-71
2022/03/30 00:30:35;;;;;;;1.03;0.70;;;17.40;59.80;;;;;;5218468;28;20200;-71
2022/03/30 00:33:29;;;;;;;1.70;0.80;;;17.40;59.80;;;;;;5207954;28;20704;-71
2022/03/30 00:36:21;;;;;;;1.07;0.80;;;17.40;59.80;;;;;;5223254;28;20235;-71
2022/03/30 00:39:13;;;;;;;1.50;0.83;;;17.40;59.80;;;;;;5223381;28;20200;-71
2022/03/30 00:42:14;;;;;;;1.43;0.80;;;17.40;59.90;;;;;;5223109;28;20201;-70
2022/03/30 00:45:11;;;;;;;1.87;1.00;;;17.40;59.90;;;;;;5222861;28;20197;-70
2022/03/30 00:48:03;;;;;;;1.33;0.90;;;17.40;59.80;;;;;;5222964;28;20279;-71
2022/03/30 00:50:57;;;;;;;1.20;0.77;;;17.40;59.80;;;;;;5221796;28;20584;-69
2022/03/30 00:53:49;;;;;;;1.47;1.03;;;17.40;59.80;;;;;;5223131;28;20225;-71
2022/03/30 00:56:43;;;;;;;1.03;0.77;;;17.40;59.80;;;;;;5223137;28;20257;-71
2022/03/30 00:59:35;;;;;;;2.53;1.23;;;17.40;59.80;;;;;;5230635;28;20220;-71
2022/03/30 01:02:29;;;;;;;1.60;1.10;;;17.40;59.80;;;;;;5202311;28;20190;-71
2022/03/30 01:05:21;;;;;;;1.70;0.90;;;17.40;59.70;;;;;;5221133;28;20290;-71
2022/03/30 01:08:14;;;;;;;1.93;1.00;;;17.40;59.70;;;;;;5201841;28;20201;-70
2022/03/30 01:11:09;;;;;;;1.53;0.93;;;17.40;59.70;;;;;;5218329;28;20190;-70
2022/03/30 01:14:02;;;;;;;1.33;0.80;;;17.40;59.70;;;;;;5222778;28;20216;-71
2022/03/30 01:16:54;;;;;;;1.20;0.90;;;17.40;59.70;;;;;;5222397;28;20200;-70
2022/03/30 01:19:47;;;;;;;1.60;0.90;;;17.40;59.70;;;;;;5222460;28;20197;-71
2022/03/30 01:22:40;;;;;;;1.30;0.90;;;17.40;59.70;;;;;;5222598;28;20209;-71
2022/03/30 01:25:32;;;;;;;1.67;1.10;;;17.40;59.70;;;;;;5223011;28;20246;-71
2022/03/30 01:28:28;;;;;;;1.00;0.80;;;17.40;59.70;;;;;;5222641;28;20546;-71
2022/03/30 01:34:29;;;;;;;1.00;0.70;;;17.40;59.60;;;;;;5222907;28;20227;-71
2022/03/30 01:37:23;;;;;;;1.33;0.67;;;17.40;59.60;;;;;;5222460;28;20205;-71
2022/03/30 01:40:16;;;;;;;1.97;0.90;;;17.40;59.60;;;;;;5222356;28;20849;-71
2022/03/30 01:43:09;;;;;;;2.47;1.40;;;17.40;59.60;;;;;;5222294;28;20221;-71
2022/03/30 01:46:01;;;;;;;1.17;0.80;;;17.40;59.60;;;;;;5222016;28;20245;-71
2022/03/30 01:48:53;;;;;;;1.13;0.80;;;17.40;59.70;;;;;;5222156;28;20201;-70
2022/03/30 01:51:45;;;;;;;1.80;0.97;;;17.40;59.70;;;;;;5221030;28;20205;-70
2022/03/30 01:54:39;;;;;;;1.53;0.87;;;17.40;59.60;;;;;;5221973;28;20212;-71
2022/03/30 01:57:33;;;;;;;1.23;0.90;;;17.40;59.60;;;;;;5224161;28;20205;-72
2022/03/30 02:00:26;;;;;;;2.10;0.93;;;17.40;59.60;;;;;;5219508;28;20201;-71
2022/03/30 02:03:19;;;;;;;1.10;0.80;;;17.40;59.70;;;;;;5208069;28;20216;-71
2022/03/30 02:06:12;;;;;;;1.90;0.87;;;17.40;59.60;;;;;;5223144;28;20702;-71
2022/03/30 02:09:05;;;;;;;1.90;0.87;;;17.40;59.60;;;;;;5222610;28;20201;-70
2022/03/30 02:11:58;;;;;;;1.80;0.70;;;17.40;59.60;;;;;;5222228;28;20193;-70
2022/03/30 02:14:53;;;;;;;1.43;0.80;;;17.40;59.60;;;;;;5234781;28;20572;-70
2022/03/30 02:17:45;;;;;;;2.40;0.80;;;17.40;59.50;;;;;;5242313;28;20272;-71
2022/03/30 02:20:37;;;;;;;2.33;0.87;;;17.40;59.60;;;;;;5241627;28;20196;-71
2022/03/30 02:23:29;;;;;;;1.40;0.97;;;17.40;59.50;;;;;;5243050;28;20208;-71
2022/03/30 02:26:21;;;;;;;1.87;1.00;;;17.40;59.60;;;;;;5242311;28;20208;-71
2022/03/30 02:29:14;;;;;;;1.00;0.70;;;17.40;59.60;;;;;;5243169;28;20261;-71
2022/03/30 02:32:09;;;;;;;1.73;0.70;;;17.40;59.50;;;;;;5242864;28;20659;-70
2022/03/30 02:35:01;;;;;;;1.63;0.80;;;17.40;59.50;;;;;;5243026;28;20615;-71
2022/03/30 02:37:55;;;;;;;2.17;0.70;;;17.40;59.50;;;;;;5243689;28;20249;-71
2022/03/30 02:40:47;;;;;;;1.80;0.60;;;17.40;59.50;;;;;;5241895;28;20199;-71
2022/03/30 02:43:40;;;;;;;1.83;0.80;;;17.40;59.50;;;;;;5243607;28;20699;-71
2022/03/30 02:46:32;;;;;;;1.47;0.80;;;17.40;59.50;;;;;;5243103;28;20287;-71
2022/03/30 02:49:26;;;;;;;1.10;0.70;;;17.40;59.50;;;;;;5242822;28;20195;-71
2022/03/30 02:52:18;;;;;;;2.03;0.87;;;17.40;59.50;;;;;;5232494;28;20284;-70
2022/03/30 02:55:10;;;;;;;1.73;0.90;;;17.40;59.50;;;;;;5226547;28;20229;-70
2022/03/30 02:58:02;;;;;;;1.77;1.00;;;17.40;59.50;;;;;;5226499;28;20196;-71
2022/03/30 03:00:55;;;;;;;3.10;1.10;;;17.40;59.50;;;;;;5234909;28;20196;-71
2022/03/30 03:03:47;;;;;;;1.67;1.00;;;17.40;59.50;;;;;;5242748;28;20599;-71
2022/03/30 03:06:41;;;;;;;1.60;0.90;;;17.40;59.40;;;;;;5246589;28;20227;-71
2022/03/30 03:09:33;;;;;;;1.53;0.80;;;17.40;59.40;;;;;;5247002;28;20196;-71
2022/03/30 03:12:25;;;;;;;1.07;0.70;;;17.40;59.50;;;;;;5246835;28;20196;-70
2022/03/30 03:15:17;;;;;;;1.43;0.80;;;17.40;59.50;;;;;;5247092;28;20669;-71
2022/03/30 03:18:09;;;;;;;1.27;0.70;;;17.40;59.50;;;;;;5246048;28;20602;-71
2022/03/30 03:21:01;;;;;;;2.10;1.03;;;17.40;59.40;;;;;;5244722;28;20202;-69
2022/03/30 03:23:55;;;;;;;3.83;1.00;;;17.40;59.50;;;;;;5246426;28;20224;-71
2022/03/30 03:26:47;;;;;;;1.90;0.90;;;17.40;59.40;;;;;;5245408;28;20192;-71
2022/03/30 03:29:39;;;;;;;2.07;0.87;;;17.40;59.50;;;;;;5226178;28;20201;-71
2022/03/30 03:32:31;;;;;;;1.53;0.73;;;17.40;59.50;;;;;;5225305;28;20201;-71
2022/03/30 03:35:23;;;;;;;2.20;0.90;;;17.40;59.40;;;;;;5225508;28;20221;-70
2022/03/30 03:38:16;;;;;;;1.63;0.70;;;17.40;59.50;;;;;;5225318;28;20979;-70
2022/03/30 03:41:09;;;;;;;1.73;0.90;;;17.40;59.40;;;;;;5243936;28;20602;-70
2022/03/30 03:44:02;;;;;;;1.03;0.80;;;17.40;59.30;;;;;;5245331;28;20213;-71
2022/03/30 03:46:55;;;;;;;0.90;0.70;;;17.40;59.30;;;;;;5245380;28;20275;-70
2022/03/30 03:49:47;;;;;;;0.80;0.60;;;17.40;59.30;;;;;;5245177;28;20204;-70
2022/03/30 03:52:39;;;;;;;0.93;0.60;;;17.40;59.20;;;;;;5244323;28;20279;-71
2022/03/30 03:55:33;;;;;;;1.07;0.70;;;17.50;59.20;;;;;;5245428;28;20573;-71
2022/03/30 03:58:26;;;;;;;1.93;1.00;;;17.40;59.10;;;;;;5245776;28;20205;-72
2022/03/30 04:01:19;;;;;;;1.10;0.80;;;17.40;59.10;;;;;;5244689;28;21009;-71
2022/03/30 04:04:11;;;;;;;0.70;0.63;;;17.50;59.10;;;;;;5244491;28;20224;-71
2022/03/30 04:07:03;;;;;;;1.40;0.80;;;17.50;59.10;;;;;;5244621;28;20205;-70
2022/03/30 04:09:55;;;;;;;2.53;0.83;;;17.50;59.20;;;;;;5244472;28;20230;-71
2022/03/30 04:12:47;;;;;;;1.57;0.90;;;17.40;59.20;;;;;;5244989;28;20668;-70
2022/03/30 04:15:41;;;;;;;0.47;0.47;;;17.50;59.20;;;;;;5244947;28;20599;-71
2022/03/30 04:18:33;;;;;;;1.67;0.87;;;17.50;59.20;;;;;;5245673;28;20287;-70
2022/03/30 04:21:25;;;;;;;1.80;0.90;;;17.50;59.20;;;;;;5245574;28;20207;-71
2022/03/30 04:24:17;;;;;;;1.33;1.00;;;17.50;59.30;;;;;;5245158;28;20224;-71
2022/03/30 04:27:09;;;;;;;1.27;0.70;;;17.50;59.20;;;;;;5245569;28;20676;-71
2022/03/30 04:30:01;;;;;;;0.83;0.70;;;17.50;59.20;;;;;;5243898;28;20230;-70
2022/03/30 04:32:55;;;;;;;0.87;0.60;;;17.50;59.10;;;;;;5244749;28;20218;-71
2022/03/30 04:35:47;;;;;;;1.00;0.60;;;17.50;59.10;;;;;;5245016;28;20224;-71
2022/03/30 04:38:39;;;;;;;1.67;0.80;;;17.50;59.10;;;;;;5231010;28;20700;-70
2022/03/30 04:41:31;;;;;;;1.57;0.90;;;17.50;59.10;;;;;;5229106;28;20197;-71
2022/03/30 04:44:25;;;;;;;2.37;0.90;;;17.50;59.10;;;;;;5240766;28;20218;-70
2022/03/30 04:47:17;;;;;;;1.20;0.93;;;17.50;59.10;;;;;;5223541;28;20194;-71
2022/03/30 04:50:13;;;;;;;3.13;0.93;;;17.50;59.10;;;;;;5224514;28;20202;-71
2022/03/30 04:53:05;;;;;;;0.80;0.60;;;17.50;59.10;;;;;;5224532;28;20228;-70
2022/03/30 04:55:57;;;;;;;1.47;0.83;;;17.50;59.10;;;;;;5237870;28;20225;-71
2022/03/30 04:58:50;;;;;;;2.13;0.63;;;17.50;59.10;;;;;;5243706;28;20676;-71
2022/03/30 05:01:42;;;;;;;1.50;0.70;;;17.50;59.10;;;;;;5240099;28;20230;-71
2022/03/30 05:04:34;;;;;;;1.30;0.70;;;17.50;59.00;;;;;;5243107;28;20232;-71
2022/03/30 05:07:28;;;;;;;0.97;0.67;;;17.60;59.00;;;;;;5244009;28;20197;-70
2022/03/30 05:10:20;;;;;;;2.07;0.90;;;17.50;59.00;;;;;;5244210;28;20207;-70
2022/03/30 05:13:12;;;;;;;1.33;0.80;;;17.50;59.00;;;;;;5244280;28;20216;-71
2022/03/30 05:16:05;;;;;;;1.30;0.60;;;17.50;59.00;;;;;;5235282;28;20220;-70
2022/03/30 05:18:57;;;;;;;1.53;0.80;;;17.50;59.00;;;;;;5243659;28;20241;-68
2022/03/30 05:21:49;;;;;;;1.40;0.77;;;17.60;59.10;;;;;;5243731;28;20423;-67
2022/03/30 05:24:43;;;;;;;1.50;0.77;;;17.60;59.10;;;;;;5244087;28;20213;-67
2022/03/30 05:27:35;;;;;;;2.03;0.63;;;17.60;59.20;;;;;;5239466;28;20204;-67
2022/03/30 05:30:28;;;;;;;2.63;1.00;;;17.60;59.20;;;;;;5241370;28;20196;-66
2022/03/30 05:33:20;;;;;;;2.13;0.70;;;17.60;59.30;;;;;;5242198;28;20721;-67
2022/03/30 05:36:13;;;;;;;1.90;0.90;;;17.60;59.30;;;;;;5238697;28;20220;-67
2022/03/30 05:39:05;;;;;;;2.80;0.97;;;17.60;59.30;;;;;;5242193;28;20193;-67
2022/03/30 05:41:58;;;;;;;2.27;1.07;;;17.60;59.30;;;;;;5242055;28;20693;-66
2022/03/30 05:44:52;;;;;;;2.43;0.63;;;17.60;59.30;;;;;;5243116;28;20583;-67
2022/03/30 05:47:44;;;;;;;5.13;0.80;;;17.60;59.30;;;;;;5243700;28;20667;-67
2022/03/30 05:50:39;;;;;;;5.07;0.90;;;17.60;59.30;;;;;;5234896;28;20201;-67
2022/03/30 05:53:31;;;;;;;1.77;0.80;;;17.60;59.30;;;;;;5222802;28;20220;-67
2022/03/30 05:57:00;;;;;;;1.20;0.70;;;17.60;59.30;;;;;;5222889;28;20251;-67
2022/03/30 05:59:38;;;;;;;1.83;0.80;;;17.60;59.30;;;;;;5226110;28;20205;-67
2022/03/30 06:02:30;;;;;;;0.93;0.73;;;17.60;59.40;;;;;;5221099;28;20198;-67
2022/03/30 06:05:23;;;;;;;2.73;0.90;;;17.60;59.30;;;;;;5219610;28;20224;-65
2022/03/30 06:08:15;;;;;;;2.80;0.80;;;17.60;59.20;;;;;;5223442;28;20253;-66
2022/03/30 06:11:07;;;;;;;1.13;0.77;;;17.60;59.10;;;;;;5222114;28;20196;-65
2022/03/30 06:13:59;;;;;;;1.43;0.63;;;17.60;59.10;;;;;;5222218;28;20714;-63
2022/03/30 06:16:53;;;;;;;1.93;0.83;;;17.60;59.20;;;;;;5217408;28;20197;-65
2022/03/30 06:19:46;;;;;;;3.33;0.90;;;17.60;59.20;;;;;;5217651;28;20564;-66
2022/03/30 06:22:39;;;;;;;1.87;0.97;;;17.60;59.20;;;;;;5220359;28;20208;-65
2022/03/30 06:25:31;;;;;;;1.20;0.67;;;17.50;59.10;;;;;;5221141;28;20212;-67
2022/03/30 06:28:26;;;;;;;2.83;0.67;;;17.50;59.40;;;;;;5216222;28;20193;-64
2022/03/30 06:31:19;;;;;;;1.63;0.80;;;17.60;59.30;;;;;;5225846;28;20582;-64
2022/03/30 06:34:12;;;;;;;2.23;0.70;;;17.50;59.30;;;;;;5219092;28;20220;-63
2022/03/30 06:37:05;;;;;;;1.97;0.87;;;17.50;59.30;;;;;;5225986;28;20205;-64
2022/03/30 06:39:57;;;;;;;3.73;1.10;;;17.50;59.20;;;;;;5225926;28;20200;-64
2022/03/30 06:42:49;;;;;;;1.17;0.80;;;17.50;59.30;;;;;;5226404;28;20209;-64
2022/03/30 06:45:43;;;;;;;1.33;0.80;;;17.50;59.20;;;;;;5226055;28;20264;-64
2022/03/30 06:48:36;;;;;;;4.67;0.97;;;17.50;59.30;;;;;;5225635;28;20197;-64
2022/03/30 06:51:29;;;;;;;2.57;1.00;;;17.50;59.30;;;;;;5224799;28;20197;-63
2022/03/30 06:54:21;;;;;;;4.10;1.17;;;17.50;59.30;;;;;;5219084;28;20712;-64
2022/03/30 06:57:13;;;;;;;2.63;0.73;;;17.50;59.20;;;;;;5225538;28;20205;-65
2022/03/30 07:00:07;;;;;;;3.00;0.80;;;17.50;59.30;;;;;;5229698;28;20699;-64
2022/03/30 07:02:59;;;;;;;2.30;1.00;;;17.50;59.20;;;;;;5226873;28;20230;-64
2022/03/30 07:05:51;;;;;;;1.77;0.60;;;17.50;59.30;;;;;;5246900;28;20184;-64
2022/03/30 07:11:54;;;;;;;2.90;1.00;;;17.50;59.30;;;;;;5243642;28;20288;-64
2022/03/30 07:14:46;;;;;;;1.07;0.70;;;17.50;59.30;;;;;;5245422;28;20228;-64
2022/03/30 07:17:47;;;;;;;1.43;0.87;;;17.50;59.90;;;;;;5225823;28;20198;-65
2022/03/30 07:20:39;;;;;;;1.60;0.73;;;17.50;59.40;;;;;;5234735;28;20204;-64
2022/03/30 07:23:31;;;;;;;1.80;0.70;;;17.50;59.30;;;;;;5240526;28;20227;-64
2022/03/30 07:26:25;;;;;;;2.93;0.80;;;17.50;59.40;;;;;;5246092;28;20197;-64
2022/03/30 07:29:18;;;;;;;1.90;0.67;;;17.50;59.40;;;;;;5245945;28;20193;-64
2022/03/30 07:32:10;;;;;;;0.90;0.60;;;17.50;59.40;;;;;;5246561;28;20607;-64
2022/03/30 07:35:03;;;;;;;2.63;0.70;;;17.50;59.40;;;;;;5245521;28;20220;-67
2022/03/30 07:37:56;;;;;;;2.40;0.97;;;17.50;59.50;;;;;;5245020;28;20203;-69
2022/03/30 07:40:49;;;;;;;1.80;0.87;;;17.60;59.60;;;;;;5244311;28;20199;-69
2022/03/30 07:43:43;;;;;;;1.40;0.73;;;17.50;59.50;;;;;;5244894;28;20212;-69
2022/03/30 07:46:35;;;;;;;2.03;0.60;;;17.60;59.50;;;;;;5245736;28;20501;-69
2022/03/30 07:49:27;;;;;;;1.53;0.70;;;17.50;59.50;;;;;;5245794;28;20200;-70
2022/03/30 07:52:20;;;;;;;0.87;0.70;;;17.50;59.40;;;;;;5225853;28;20197;-69
2022/03/30 07:55:13;;;;;;;1.47;0.70;;;17.50;59.50;;;;;;5229409;28;20220;-69
2022/03/30 07:58:05;;;;;;;3.07;0.67;;;17.60;59.50;;;;;;5244633;28;20192;-70
2022/03/30 08:00:59;;;;;;;1.27;0.60;;;17.50;59.40;;;;;;5242195;28;20196;-69
2022/03/30 08:03:51;;;;;;;3.23;1.20;;;17.50;59.50;;;;;;5242819;28;20525;-69
2022/03/30 08:06:43;;;;;;;1.33;0.70;;;17.60;59.50;;;;;;5244538;28;20250;-69
2022/03/30 08:09:36;;;;;;;1.50;0.63;;;17.50;59.50;;;;;;5245232;28;20207;-69
2022/03/30 08:12:28;;;;;;;1.30;0.70;;;17.60;59.50;;;;;;5244675;28;20200;-69
2022/03/30 08:15:21;;;;;;;1.00;0.80;;;17.50;59.40;;;;;;5245285;28;20232;-69
2022/03/30 08:18:14;;;;;;;1.07;0.77;;;17.60;59.50;;;;;;5244671;28;20618;-70
2022/03/30 08:24:16;;;;;;;2.10;0.70;;;17.50;59.50;;;;;;5245247;28;20257;-70
2022/03/30 08:27:08;;;;;;;0.80;0.70;;;17.60;59.50;;;;;;5245196;28;20199;-69
2022/03/30 08:30:00;;;;;;;0.93;0.57;;;17.50;59.50;;;;;;5246134;28;20575;-70
2022/03/30 08:32:53;;;;;;;1.50;0.60;;;17.60;59.50;;;;;;5244076;28;20576;-69
2022/03/30 08:35:46;;;;;;;0.70;0.60;;;17.60;59.60;;;;;;5245086;28;20714;-70
2022/03/30 08:38:38;;;;;;;0.90;0.70;;;17.60;59.60;;;;;;5244454;28;20192;-70
2022/03/30 08:41:30;;;;;;;1.37;0.80;;;17.60;59.60;;;;;;5244373;28;20568;-67
2022/03/30 08:44:23;;;;;;;0.77;0.50;;;17.60;59.70;;;;;;5244792;28;20591;-67
2022/03/30 08:47:15;;;;;;;1.87;0.60;;;17.60;59.80;;;;;;5244139;28;20196;-67
2022/03/30 08:50:08;;;;;;;2.00;0.90;;;17.60;59.70;;;;;;5242058;28;20297;-67
2022/03/30 08:53:05;;;;;;;0.57;0.47;;;17.60;59.60;;;;;;5236629;28;20270;-67
2022/03/30 08:55:57;;;;;;;1.97;0.70;;;17.60;59.60;;;;;;5224504;28;20221;-66
2022/03/30 08:58:49;;;;;;;2.07;0.77;;;17.60;59.70;;;;;;5223224;28;20201;-66
2022/03/30 09:01:41;;;;;;;3.00;0.67;;;17.70;59.70;;;;;;5224713;28;20405;-68
2022/03/30 09:04:33;;;;;;;1.53;0.70;;;17.60;59.70;;;;;;5224206;28;20731;-67
2022/03/30 09:07:28;;;;;;;2.73;0.70;;;17.60;59.70;;;;;;5223249;28;20201;-68
2022/03/30 09:10:22;;;;;;;1.73;0.60;;;17.70;59.80;;;;;;5230923;28;20192;-68
2022/03/30 09:13:17;;;;;;;1.83;0.70;;;17.70;59.80;;;;;;5225765;28;20213;-67
2022/03/30 09:16:10;;;;;;;0.93;0.77;;;17.70;59.80;;;;;;5244634;28;20220;-66
2022/03/30 09:19:05;;;;;;;1.00;0.50;;;17.70;59.80;;;;;;5236617;28;20197;-64
2022/03/30 09:22:00;;;;;;;1.50;0.60;;;17.70;59.70;;;;;;5244274;28;20196;-63
2022/03/30 09:24:55;;;;;;;0.83;0.60;;;17.70;59.60;;;;;;5242963;28;20217;-63
2022/03/30 09:27:49;;;;;;;4.50;0.73;;;17.70;59.60;;;;;;5241421;28;20289;-65
2022/03/30 09:30:41;;;;;;;1.73;0.60;;;17.70;59.60;;;;;;5241617;28;20204;-63
2022/03/30 09:33:34;;;;;;;1.50;0.60;;;17.70;59.70;;;;;;5249215;28;20234;-63
2022/03/30 09:36:27;;;;;;;2.10;0.60;;;17.70;59.70;;;;;;5260273;28;20219;-63
2022/03/30 09:39:31;;;;;;;1.57;0.70;;;17.70;59.80;;;;;;5224120;28;20197;-65
2022/03/30 09:42:28;;;;;;;1.00;0.50;;;17.70;59.90;;;;;;5222260;28;20212;-63
2022/03/30 09:45:30;;;;;;;1.20;0.67;;;17.60;59.90;;;;;;5236751;28;20571;-64
2022/03/30 09:48:25;;;;;;;0.60;0.50;;;17.60;60.00;;;;;;5243699;28;20220;-64
2022/03/30 09:51:17;;;;;;;0.83;0.60;;;17.60;60.00;;;;;;5234742;28;20231;-64
2022/03/30 09:54:12;;;;;;;0.93;0.57;;;17.70;60.00;;;;;;5243265;28;20715;-67
2022/03/30 09:57:10;;;;;;;1.37;0.60;;;17.60;60.00;;;;;;5243538;28;20691;-67
2022/03/30 10:00:08;;;;;;;1.70;0.57;;;17.60;60.20;;;;;;5244082;28;20572;-64
2022/03/30 10:03:02;;;;;;;1.57;0.60;;;17.60;60.30;;;;;;5241582;28;20242;-67
2022/03/30 10:05:54;;;;;;;1.20;0.60;;;17.60;60.30;;;;;;5243079;28;20275;-67
2022/03/30 10:08:48;;;;;;;0.63;0.50;;;17.60;60.40;;;;;;5241687;28;20200;-67
2022/03/30 10:11:41;;;;;;;1.27;0.47;;;17.70;60.40;;;;;;5241422;28;20188;-67
2022/03/30 10:14:34;;;;;;;1.00;0.43;;;17.70;60.40;;;;;;5242664;28;20247;-67
2022/03/30 10:17:28;;;;;;;1.03;0.63;;;17.70;60.40;;;;;;5242677;28;20216;-67
2022/03/30 10:20:22;;;;;;;0.70;0.53;;;17.70;60.40;;;;;;5243822;28;20246;-67
2022/03/30 10:23:26;;;;;;;1.63;0.57;;;17.70;60.30;;;;;;5242846;28;20249;-67
2022/03/30 10:26:33;;;;;;;1.30;0.60;;;17.70;60.30;;;;;;5242859;28;20230;-68
2022/03/30 10:29:28;;;;;;;0.90;0.60;;;17.70;60.30;;;;;;5242667;28;20200;-67
2022/03/30 10:32:22;;;;;;;2.23;0.80;;;17.70;60.30;;;;;;5242769;28;20193;-67
2022/03/30 10:35:15;;;;;;;1.40;0.40;;;17.70;60.30;;;;;;5243282;28;20203;-67
2022/03/30 10:38:10;;;;;;;1.47;0.57;;;17.70;60.30;;;;;;5242128;28;20688;-68
2022/03/30 10:41:10;;;;;;;0.90;0.60;;;17.70;60.30;;;;;;5242981;28;20660;-67
2022/03/30 10:44:36;;;;;;;1.73;0.60;;;17.70;60.20;;;;;;5242584;28;20774;-67
2022/03/30 10:47:29;;;;;;;0.97;0.50;;;17.70;60.20;;;;;;5242981;28;20279;-67
2022/03/30 10:50:33;;;;;;;0.77;0.30;;;17.70;60.30;;;;;;5235851;28;20201;-67
2022/03/30 10:53:47;;;;;;;1.80;0.60;;;17.70;60.30;;;;;;5229357;28;20244;-67
2022/03/30 10:56:49;;;;;;;1.27;0.67;;;17.70;60.20;;;;;;5227205;28;20235;-67
2022/03/30 11:00:07;;;;;;;1.73;0.50;;;17.70;60.20;;;;;;5239312;28;20279;-67
2022/03/30 11:03:17;;;;;;;0.90;0.47;;;17.70;60.20;;;;;;5242453;28;20366;-67
2022/03/30 11:06:09;;;;;;;1.17;0.50;;;17.70;60.20;;;;;;5243590;28;20197;-70
2022/03/30 11:09:03;;;;;;;1.33;0.40;;;17.70;60.20;;;;;;5243183;28;20739;-67
2022/03/30 11:12:00;;;;;;;1.57;0.70;;;17.70;60.20;;;;;;5242752;28;20493;-67
2022/03/30 11:15:03;;;;;;;1.23;0.60;;;17.70;60.20;;;;;;5244630;28;20223;-67
2022/03/30 11:18:17;;;;;;;0.73;0.50;;;17.70;60.20;;;;;;5247019;28;20659;-67
2022/03/30 11:21:17;;;;;;;1.47;0.60;;;17.70;60.20;;;;;;5249893;28;20265;-67
2022/03/30 11:24:30;;;;;;;1.10;0.53;;;17.70;60.20;;;;;;5232157;28;20257;-67
2022/03/30 11:27:23;;;;;;;1.10;0.40;;;17.70;60.20;;;;;;5225130;28;20200;-68
2022/03/30 11:30:17;;;;;;;1.37;0.60;;;17.70;60.20;;;;;;5226022;28;20256;-67
2022/03/30 11:33:22;;;;;;;1.53;0.50;;;17.70;60.20;;;;;;5225756;28;20770;-66
2022/03/30 11:36:15;;;;;;;0.70;0.50;;;17.70;60.20;;;;;;5243808;28;20347;-67
2022/03/30 11:39:08;;;;;;;0.97;0.53;;;17.70;60.20;;;;;;5245334;28;20781;-65
2022/03/30 11:42:01;;;;;;;0.70;0.50;;;17.70;60.20;;;;;;5241960;28;20675;-67
2022/03/30 11:48:06;;;;;;;1.37;0.50;;;17.70;60.20;;;;;;5245392;28;20220;-67
2022/03/30 11:51:03;;;;;;;0.77;0.37;;;17.70;60.20;;;;;;5243772;28;20200;-67
2022/03/30 11:54:11;;;;;;;2.93;0.60;;;17.60;60.10;;;;;;5245467;28;20216;-67
2022/03/30 11:57:04;;;;;;;1.03;0.50;;;17.70;60.10;;;;;;5239474;28;20217;-68
2022/03/30 11:59:57;;;;;;;2.63;0.70;;;17.70;59.90;;;;;;5237520;28;20258;-68
2022/03/30 12:02:49;;;;;;;1.73;0.60;;;17.70;59.50;;;;;;5233776;28;20192;-67
2022/03/30 12:05:41;;;;;;;4.03;1.07;;;17.70;58.70;;;;;;5228702;28;20201;-67
2022/03/30 12:08:42;;;;;;;2.17;0.87;;;17.70;58.90;;;;;;5236456;28;20200;-67
2022/03/30 12:11:36;;;;;;;1.53;0.87;;;17.60;59.10;;;;;;5236012;28;20199;-67
2022/03/30 12:14:29;;;;;;;2.40;0.80;;;17.60;59.30;;;;;;5231981;28;20682;-67
2022/03/30 12:17:24;;;;;;;2.50;0.77;;;17.60;59.10;;;;;;5230468;28;20213;-68
2022/03/30 12:20:24;;;;;;;1.50;0.83;;;17.60;59.10;;;;;;5245792;28;20824;-68
2022/03/30 12:23:16;;;;;;;2.63;0.80;;;17.60;59.20;;;;;;5244963;28;20622;-68
2022/03/30 12:26:16;;;;;;;4.23;1.33;;;17.60;59.20;;;;;;5243034;28;20574;-68
2022/03/30 12:29:10;;;;;;;3.00;1.10;;;17.60;59.30;;;;;;5243998;28;20208;-69
2022/03/30 12:32:02;;;;;;;6.73;1.80;;;17.60;59.50;;;;;;5244263;28;20261;-68
2022/03/30 12:35:07;;;;;;;5.70;2.20;;;17.60;59.50;;;;;;5241973;28;20231;-68
2022/03/30 12:38:07;;;;;;;7.27;2.50;;;17.60;59.40;;;;;;5236450;28;20679;-68
2022/03/30 12:40:59;;;;;;;6.60;2.40;;;17.60;59.40;;;;;;5229537;28;20258;-69
2022/03/30 12:44:03;;;;;;;7.30;2.30;;;17.60;59.50;;;;;;5240859;28;20228;-68
2022/03/30 12:46:58;;;;;;;6.20;2.13;;;17.60;59.50;;;;;;5243060;28;20192;-68
2022/03/30 12:49:52;;;;;;;6.30;2.13;;;17.60;59.50;;;;;;5243363;28;20671;-68
2022/03/30 12:52:48;;;;;;;8.37;2.73;;;17.60;59.50;;;;;;5243744;28;20192;-68
2022/03/30 12:55:40;;;;;;;7.37;2.77;;;17.60;59.50;;;;;;5240941;28;20598;-68
2022/03/30 12:58:33;;;;;;;10.07;2.50;;;17.60;59.60;;;;;;5226570;28;20212;-68
2022/03/30 13:01:35;;;;;;;12.15;3.65;;;17.60;59.50;;;;;;5237493;28;20418;-66
2022/03/30 13:04:31;;;;;;;8.17;2.80;;;17.70;59.30;;;;;;5241245;28;20223;-65
2022/03/30 13:07:26;;;;;;;9.93;2.97;;;17.70;59.30;;;;;;5233203;28;20290;-65
2022/03/30 13:10:19;;;;;;;12.70;3.47;;;17.70;59.40;;;;;;5232249;28;20204;-65
2022/03/30 13:13:11;;;;;;;10.40;3.10;;;17.70;59.50;;;;;;5235115;28;20316;-65
2022/03/30 13:16:06;;;;;;;12.03;3.50;;;17.70;59.60;;;;;;5238927;28;20620;-65
2022/03/30 13:19:06;;;;;;;8.80;3.23;;;17.70;59.60;;;;;;5236473;28;20205;-65
2022/03/30 13:21:59;;;;;;;7.07;3.30;;;17.70;59.70;;;;;;5244325;28;20200;-65
2022/03/30 13:24:52;;;;;;;10.70;3.23;;;17.60;59.60;;;;;;5243431;28;20208;-65
2022/03/30 13:27:44;;;;;;;9.43;3.30;;;17.70;59.70;;;;;;5238660;28;20578;-67
2022/03/30 13:30:36;;;;;;;10.23;2.87;;;17.70;59.80;;;;;;5241673;28;20247;-66
2022/03/30 13:33:30;;;;;;;6.97;3.17;;;17.70;60.00;;;;;;5223563;28;20340;-67
2022/03/30 13:36:24;;;;;;;7.40;2.67;;;17.60;60.00;;;;;;5228250;28;20478;-66
2022/03/30 13:39:17;;;;;;;9.87;2.70;;;17.60;60.10;;;;;;5244054;28;20250;-66
2022/03/30 13:42:09;;;;;;;9.90;3.07;;;17.60;60.10;;;;;;5243425;28;20200;-66
2022/03/30 13:45:01;;;;;;;9.67;2.87;;;17.60;60.10;;;;;;5243151;28;20222;-66
2022/03/30 13:47:54;;;;;;;9.70;3.27;;;17.60;60.10;;;;;;5243668;28;20578;-67
2022/03/30 13:50:48;;;;;;;9.53;3.43;;;17.60;60.10;;;;;;5233637;28;20205;-66
2022/03/30 13:53:42;;;;;;;9.07;3.20;;;17.60;60.10;;;;;;5235578;28;20220;-66
2022/03/30 13:56:34;;;;;;;11.17;2.90;;;17.70;60.20;;;;;;5242413;28;20683;-66
2022/03/30 13:59:26;;;;;;;9.40;3.23;;;17.70;60.20;;;;;;5243958;28;20560;-67
2022/03/30 14:02:18;;;;;;;7.70;3.30;;;17.70;60.20;;;;;;5243642;28;20234;-66
2022/03/30 14:05:11;;;;;;;8.87;3.10;;;17.60;60.20;;;;;;5244288;28;20196;-66
2022/03/30 14:08:03;;;;;;;8.00;2.50;;;17.70;60.30;;;;;;5240402;28;20675;-66
2022/03/30 14:10:59;;;;;;;6.63;2.77;;;17.70;60.30;;;;;;5233440;28;20211;-66
2022/03/30 14:13:51;;;;;;;9.13;3.33;;;17.60;60.20;;;;;;5240390;28;20241;-66
2022/03/30 14:16:43;;;;;;;8.03;3.03;;;17.70;60.30;;;;;;5238134;28;20208;-65
2022/03/30 14:19:36;;;;;;;7.50;3.07;;;17.70;60.30;;;;;;5233366;28;20285;-66
2022/03/30 14:22:28;;;;;;;8.30;3.03;;;17.60;60.20;;;;;;5243532;28;20200;-66
2022/03/30 14:25:21;;;;;;;8.03;3.10;;;17.70;60.30;;;;;;5241863;28;20612;-66
2022/03/30 14:28:15;;;;;;;7.97;3.30;;;17.70;60.30;;;;;;5243132;28;20227;-66
2022/03/30 14:31:07;;;;;;;6.50;2.63;;;17.60;60.30;;;;;;5242945;28;20228;-64
2022/03/30 14:33:59;;;;;;;8.27;2.93;;;17.70;60.30;;;;;;5242327;28;20273;-66
2022/03/30 14:36:53;;;;;;;5.93;2.50;;;17.70;60.30;;;;;;5242934;28;20568;-67
2022/03/30 14:39:46;;;;;;;5.97;2.63;;;17.70;60.40;;;;;;5241859;28;20196;-66
2022/03/30 14:42:38;;;;;;;9.13;3.17;;;17.60;60.30;;;;;;5222625;28;20276;-67
2022/03/30 14:45:31;;;;;;;8.73;3.50;;;17.70;60.40;;;;;;5233858;28;20362;-66
2022/03/30 14:48:24;;;;;;;8.40;3.00;;;17.70;60.40;;;;;;5242888;28;20619;-66
2022/03/30 14:51:17;;;;;;;8.73;3.20;;;17.60;60.30;;;;;;5232189;28;20201;-66
2022/03/30 14:54:09;;;;;;;5.63;2.30;;;17.60;60.30;;;;;;5230036;28;20354;-66
2022/03/30 14:57:02;;;;;;;6.77;2.53;;;17.60;60.40;;;;;;5245686;28;20216;-66
2022/03/30 14:59:55;;;;;;;6.13;2.60;;;17.70;60.50;;;;;;5243301;28;20283;-66
2022/03/30 15:02:49;;;;;;;7.13;2.50;;;17.60;60.50;;;;;;5247391;28;20337;-65
2022/03/30 15:05:42;;;;;;;9.20;2.83;;;17.70;60.60;;;;;;5246961;28;20283;-66
2022/03/30 15:08:34;;;;;;;6.87;2.83;;;17.70;60.60;;;;;;5246612;28;20192;-65
2022/03/30 15:11:26;;;;;;;8.97;3.17;;;17.70;60.60;;;;;;5246230;28;20701;-66
2022/03/30 15:14:19;;;;;;;7.77;3.27;;;17.70;60.50;;;;;;5228283;28;20264;-67
2022/03/30 15:17:11;;;;;;;8.17;3.03;;;17.70;60.50;;;;;;5225495;28;20650;-66